createdAt,value
2019-05-19T00:01:45.420Z,16.78
2019-05-19T00:04:17.357Z,17.56
2019-05-19T00:06:48.998Z,18.27
2019-05-19T00:09:20.725Z,18.95
2019-05-19T00:11:52.478Z,18.78
2019-05-19T00:14:24.022Z,18.11
2019-05-19T00:16:55.654Z,17.53
2019-05-19T00:19:27.331Z,17.02
2019-05-19T00:22:00.392Z,16.56
2019-05-19T00:24:31.938Z,16.15
2019-05-19T00:27:03.552Z,16.49
2019-05-19T00:29:35.395Z,17.42
2019-05-19T00:32:07.042Z,18.25
2019-05-19T00:34:38.582Z,18.92
2019-05-19T00:37:10.327Z,18.77
2019-05-19T00:39:42.070Z,18.01
2019-05-19T00:42:13.828Z,17.40
2019-05-19T00:44:45.569Z,16.87
2019-05-19T00:47:17.113Z,16.43
2019-05-19T00:49:48.667Z,16.01
2019-05-19T00:52:20.324Z,16.33
2019-05-19T00:54:52.072Z,17.25
2019-05-19T00:57:25.924Z,18.12
2019-05-19T00:59:58.774Z,18.78
2019-05-19T01:02:31.284Z,18.70
2019-05-19T01:05:03.300Z,17.98
2019-05-19T01:07:35.277Z,17.36
2019-05-19T01:10:10.588Z,16.87
2019-05-19T01:12:42.139Z,16.43
2019-05-19T01:15:14.288Z,16.03
2019-05-19T01:17:45.902Z,16.46
2019-05-19T01:20:18.580Z,17.39
2019-05-19T01:22:50.228Z,18.18
2019-05-19T01:25:22.073Z,18.92
2019-05-19T01:27:53.621Z,18.74
2019-05-19T01:30:25.255Z,17.99
2019-05-19T01:32:56.803Z,17.43
2019-05-19T01:35:28.339Z,16.87
2019-05-19T01:38:00.189Z,16.39
2019-05-19T01:40:31.733Z,15.94
2019-05-19T01:43:03.284Z,16.28
2019-05-19T01:45:34.918Z,17.22
2019-05-19T01:48:09.731Z,18.04
2019-05-19T01:50:41.469Z,18.71
2019-05-19T01:53:13.220Z,18.61
2019-05-19T01:55:44.972Z,17.91
2019-05-19T01:58:16.721Z,17.33
2019-05-19T02:00:48.267Z,16.81
2019-05-19T02:03:20.009Z,16.33
2019-05-19T02:05:51.749Z,16.60
2019-05-19T02:08:23.500Z,17.52
2019-05-19T02:10:55.252Z,18.27
2019-05-19T02:13:27.011Z,18.92
2019-05-19T02:15:58.565Z,18.77
2019-05-19T02:18:30.215Z,18.05
2019-05-19T02:21:03.410Z,17.46
2019-05-19T02:23:34.961Z,16.94
2019-05-19T02:26:06.525Z,16.46
2019-05-19T02:28:38.173Z,16.05
2019-05-19T02:31:09.717Z,16.39
2019-05-19T02:33:41.355Z,17.26
2019-05-19T02:36:12.904Z,18.04
2019-05-19T02:38:44.452Z,18.71
2019-05-19T02:41:18.273Z,18.53
2019-05-19T02:43:53.101Z,17.76
2019-05-19T02:46:26.551Z,17.15
2019-05-19T02:49:00.537Z,16.63
2019-05-19T02:51:35.162Z,16.14
2019-05-19T02:54:09.235Z,15.65
2019-05-19T02:56:41.055Z,16.03
2019-05-19T02:59:14.050Z,16.88
2019-05-19T03:02:02.657Z,17.70
2019-05-19T03:04:34.305Z,18.44
2019-05-19T03:07:06.155Z,19.03
2019-05-19T03:09:37.903Z,18.84
2019-05-19T03:12:09.739Z,18.11
2019-05-19T03:14:41.485Z,17.46
2019-05-19T03:17:13.224Z,16.91
2019-05-19T03:19:44.789Z,16.39
2019-05-19T03:22:16.332Z,15.91
2019-05-19T03:24:47.890Z,16.27
2019-05-19T03:27:19.454Z,17.11
2019-05-19T03:29:52.634Z,17.78
2019-05-19T03:32:34.790Z,18.52
2019-05-19T03:35:06.685Z,19.22
2019-05-19T03:37:38.358Z,19.17
2019-05-19T03:40:12.058Z,18.42
2019-05-19T03:42:43.595Z,17.84
2019-05-19T03:45:15.136Z,17.32
2019-05-19T03:47:46.850Z,16.86
2019-05-19T03:50:18.689Z,16.50
2019-05-19T03:52:50.440Z,16.94
2019-05-19T03:55:21.986Z,17.95
2019-05-19T03:57:53.523Z,18.91
2019-05-19T04:00:25.533Z,19.95
2019-05-19T04:02:57.076Z,21.17
2019-05-19T04:05:29.225Z,22.37
2019-05-19T04:08:01.014Z,22.50
2019-05-19T04:10:32.750Z,22.46
2019-05-19T04:13:04.504Z,22.54
2019-05-19T04:15:36.246Z,22.74
2019-05-19T04:18:07.984Z,22.89
2019-05-19T04:20:39.729Z,23.09
2019-05-19T04:23:11.569Z,23.33
2019-05-19T04:25:43.312Z,23.50
2019-05-19T04:28:15.047Z,23.41
2019-05-19T04:30:46.801Z,23.09
2019-05-19T04:33:18.550Z,22.65
2019-05-19T04:35:51.934Z,22.23
2019-05-19T04:38:23.582Z,21.92
2019-05-19T04:40:55.418Z,21.95
2019-05-19T04:43:27.162Z,21.71
2019-05-19T04:45:58.902Z,21.36
2019-05-19T04:48:32.703Z,21.02
2019-05-19T04:51:07.255Z,20.68
2019-05-19T04:53:41.227Z,20.29
2019-05-19T04:56:14.551Z,19.98
2019-05-19T04:58:46.293Z,19.68
2019-05-19T05:01:18.913Z,19.43
2019-05-19T05:03:50.455Z,20.08
2019-05-19T05:06:22.298Z,21.17
2019-05-19T05:08:53.975Z,22.03
2019-05-19T05:11:25.719Z,22.12
2019-05-19T05:13:57.468Z,21.62
2019-05-19T05:16:29.211Z,21.19
2019-05-19T05:19:05.147Z,20.82
2019-05-19T05:21:36.719Z,20.55
2019-05-19T05:24:10.206Z,20.23
2019-05-19T09:25:58.327Z,23.34
2019-05-19T09:28:31.212Z,24.16
2019-05-19T09:31:02.987Z,25.10
2019-05-19T09:33:36.567Z,25.02
2019-05-19T09:36:22.221Z,24.78
2019-05-19T09:38:53.937Z,24.67
2019-05-19T09:41:26.051Z,24.62
2019-05-19T09:43:58.781Z,24.61
2019-05-19T09:46:32.449Z,24.61
2019-05-19T09:49:26.149Z,24.62
2019-05-19T09:51:57.879Z,24.59
2019-05-19T09:54:44.100Z,24.55
2019-05-19T09:57:19.423Z,24.51
2019-05-19T09:59:54.865Z,24.48
2019-05-19T10:02:26.697Z,24.46
2019-05-19T10:04:58.720Z,24.40
2019-05-19T10:07:40.988Z,24.34
2019-05-19T10:10:30.495Z,24.43
2019-05-19T10:13:02.193Z,24.59
2019-05-19T10:15:36.610Z,24.67
2019-05-19T10:18:11.891Z,24.78
2019-05-19T10:20:43.766Z,24.79
2019-05-19T10:23:15.545Z,24.89
2019-05-19T10:25:50.906Z,24.93
2019-05-19T10:28:23.595Z,24.95
2019-05-19T10:30:56.332Z,25.01
2019-05-19T10:33:29.576Z,25.07
2019-05-19T10:36:07.813Z,25.13
2019-05-19T10:38:39.985Z,25.23
2019-05-19T10:41:19.007Z,25.29
2019-05-19T10:43:54.195Z,25.38
2019-05-19T10:46:25.792Z,25.44
2019-05-19T10:48:57.663Z,25.44
2019-05-19T10:51:32.366Z,25.45
2019-05-19T10:54:05.775Z,25.48
2019-05-19T10:56:39.049Z,25.47
2019-05-19T10:59:12.554Z,25.49
2019-05-19T11:01:48.681Z,25.51
2019-05-19T11:04:22.118Z,25.55
2019-05-19T11:06:53.699Z,25.51
2019-05-19T11:09:26.990Z,25.55
2019-05-19T11:12:00.539Z,25.55
2019-05-19T11:14:32.204Z,25.58
2019-05-19T11:17:05.633Z,25.55
2019-05-19T11:19:37.490Z,25.55
2019-05-19T11:22:10.825Z,25.52
2019-05-19T11:24:44.062Z,25.52
2019-05-19T11:27:15.885Z,25.57
2019-05-19T11:29:48.516Z,25.60
2019-05-19T11:32:20.267Z,25.58
2019-05-19T11:34:52.043Z,25.60
2019-05-19T11:37:23.787Z,25.61
2019-05-19T11:39:55.574Z,25.65
2019-05-19T11:42:27.350Z,25.64
2019-05-19T11:44:59.104Z,25.65
2019-05-19T11:47:30.862Z,25.68
2019-05-19T11:50:02.662Z,25.68
2019-05-19T11:52:34.320Z,25.72
2019-05-19T11:55:09.408Z,25.82
2019-05-19T11:57:41.271Z,25.93
2019-05-19T12:00:14.029Z,26.02
2019-05-19T12:02:45.683Z,26.09
2019-05-19T12:05:19.141Z,26.11
2019-05-19T12:07:50.801Z,26.19
2019-05-19T12:10:22.569Z,26.23
2019-05-19T12:12:56.127Z,26.23
2019-05-19T12:15:27.975Z,26.21
2019-05-19T12:18:00.023Z,26.10
2019-05-19T12:20:32.022Z,26.09
2019-05-19T12:23:03.805Z,26.10
2019-05-19T12:25:35.496Z,26.11
2019-05-19T12:28:07.251Z,26.19
2019-05-19T12:30:42.898Z,26.13
2019-05-19T12:33:16.019Z,26.10
2019-05-19T12:35:47.685Z,26.07
2019-05-19T12:38:19.518Z,26.06
2019-05-19T12:40:52.739Z,26.13
2019-05-19T12:43:25.461Z,26.20
2019-05-19T12:45:57.334Z,26.33
2019-05-19T12:48:28.981Z,26.47
2019-05-19T12:51:01.937Z,26.54
2019-05-19T12:53:33.790Z,26.55
2019-05-19T12:56:05.630Z,26.54
2019-05-19T12:58:37.317Z,26.51
2019-05-19T13:01:09.103Z,26.41
2019-05-19T13:03:41.137Z,26.36
2019-05-19T13:06:12.909Z,26.19
2019-05-19T13:08:45.810Z,26.10
2019-05-19T13:11:17.597Z,25.96
2019-05-19T13:13:49.401Z,25.82
2019-05-19T13:16:21.110Z,25.68
2019-05-19T13:18:54.447Z,25.60
2019-05-19T13:21:27.794Z,25.49
2019-05-19T13:23:59.463Z,25.38
2019-05-19T13:26:31.238Z,25.33
2019-05-19T13:29:03.331Z,25.21
2019-05-19T13:31:35.831Z,25.12
2019-05-19T13:34:08.328Z,25.05
2019-05-19T13:36:40.495Z,24.98
2019-05-19T13:39:12.531Z,24.95
2019-05-19T13:41:44.304Z,24.89
2019-05-19T13:44:16.011Z,24.83
2019-05-19T13:46:49.148Z,24.81
2019-05-19T13:49:21.099Z,24.78
2019-05-19T13:51:52.866Z,24.78
2019-05-19T13:54:25.781Z,24.76
2019-05-19T13:57:11.271Z,24.76
2019-05-19T13:59:30.869Z,24.79
2019-05-19T14:02:03.188Z,24.78
2019-05-19T14:04:35.218Z,24.81
2019-05-19T14:07:08.896Z,24.85
2019-05-19T14:09:40.647Z,24.87
2019-05-19T14:12:13.271Z,24.90
2019-05-19T14:14:45.096Z,24.96
2019-05-19T14:17:20.021Z,24.99
2019-05-19T14:19:53.508Z,25.02
2019-05-19T14:22:25.255Z,25.05
2019-05-19T14:24:57.310Z,25.10
2019-05-19T14:27:30.682Z,25.13
2019-05-19T14:30:02.443Z,25.16
2019-05-19T14:32:34.125Z,25.23
2019-05-19T14:35:07.691Z,25.31
2019-05-19T14:37:39.301Z,25.34
2019-05-19T14:40:14.082Z,25.38
2019-05-19T14:42:50.504Z,25.44
2019-05-19T14:45:22.155Z,25.51
2019-05-19T14:47:53.898Z,25.60
2019-05-19T14:50:25.654Z,25.68
2019-05-19T14:52:59.372Z,25.76
2019-05-19T14:55:31.014Z,25.88
2019-05-19T14:58:02.749Z,25.93
2019-05-19T15:00:34.652Z,25.99
2019-05-19T15:03:06.277Z,26.04
2019-05-19T15:05:38.035Z,26.14
2019-05-19T15:08:11.052Z,26.20
2019-05-19T15:10:43.065Z,26.27
2019-05-19T15:13:14.655Z,26.37
2019-05-19T15:15:50.171Z,26.40
2019-05-19T15:18:23.267Z,26.45
2019-05-19T15:20:55.406Z,26.48
2019-05-19T15:23:28.972Z,26.48
2019-05-19T15:26:00.537Z,26.50
2019-05-19T15:28:32.449Z,26.50
2019-05-19T15:31:08.146Z,26.48
2019-05-19T15:33:44.954Z,26.50
2019-05-19T15:36:18.311Z,26.47
2019-05-19T15:38:56.376Z,26.44
2019-05-19T15:41:32.427Z,26.44
2019-05-19T15:44:04.730Z,26.40
2019-05-19T15:46:36.593Z,26.28
2019-05-19T15:49:08.318Z,26.21
2019-05-19T15:51:40.176Z,26.07
2019-05-19T15:54:11.935Z,25.91
2019-05-19T15:56:43.874Z,25.71
2019-05-19T15:59:15.696Z,25.55
2019-05-19T16:01:47.475Z,25.37
2019-05-19T16:04:19.211Z,25.17
2019-05-19T16:06:51.145Z,24.99
2019-05-19T16:09:23.326Z,24.82
2019-05-19T16:11:55.178Z,24.61
2019-05-19T16:14:27.020Z,24.41
2019-05-19T16:16:58.668Z,24.28
2019-05-19T16:19:30.721Z,24.13
2019-05-19T16:22:02.493Z,23.93
2019-05-19T16:24:36.615Z,23.77
2019-05-19T16:27:08.481Z,23.61
2019-05-19T16:29:40.239Z,23.48
2019-05-19T16:32:13.172Z,23.36
2019-05-19T16:34:45.868Z,23.22
2019-05-19T16:37:18.851Z,23.09
2019-05-19T16:39:50.606Z,22.92
2019-05-19T16:42:23.354Z,22.82
2019-05-19T16:44:55.099Z,22.68
2019-05-19T16:47:26.868Z,22.58
2019-05-19T16:49:58.523Z,22.48
2019-05-19T16:52:30.451Z,22.64
2019-05-19T16:55:18.762Z,23.81
2019-05-19T16:57:50.832Z,24.28
2019-05-19T17:00:24.747Z,23.95
2019-05-19T17:02:56.317Z,23.58
2019-05-19T17:05:28.238Z,23.33
2019-05-19T17:07:59.968Z,23.13
2019-05-19T17:10:33.220Z,22.89
2019-05-19T17:13:04.980Z,22.68
2019-05-19T17:15:36.760Z,23.02
2019-05-19T17:18:09.988Z,24.09
2019-05-19T17:20:41.847Z,24.32
2019-05-19T17:23:13.629Z,23.91
2019-05-19T17:25:45.357Z,23.57
2019-05-19T17:28:17.152Z,23.27
2019-05-19T17:30:48.921Z,23.03
2019-05-19T17:33:20.741Z,22.79
2019-05-19T17:35:53.404Z,22.63
2019-05-19T17:38:27.166Z,23.10
2019-05-19T17:40:58.805Z,24.16
2019-05-19T17:43:30.678Z,24.41
2019-05-19T17:46:02.445Z,24.02
2019-05-19T17:48:35.533Z,23.64
2019-05-19T17:51:07.654Z,23.32
2019-05-19T17:53:39.577Z,23.05
2019-05-19T17:56:14.727Z,22.78
2019-05-19T17:58:47.560Z,22.51
2019-05-19T18:01:19.119Z,22.26
2019-05-19T18:03:51.056Z,22.05
2019-05-19T18:06:22.792Z,21.85
2019-05-19T18:08:54.481Z,21.64
2019-05-19T18:11:27.473Z,21.44
2019-05-19T18:13:59.161Z,21.27
2019-05-19T18:16:30.897Z,21.10
2019-05-19T18:19:04.305Z,20.96
2019-05-19T18:21:36.003Z,20.82
2019-05-19T18:24:07.768Z,21.43
2019-05-19T18:26:42.381Z,22.53
2019-05-19T18:29:14.043Z,22.75
2019-05-19T18:31:45.766Z,22.34
2019-05-19T18:34:17.527Z,22.03
2019-05-19T18:36:52.006Z,21.78
2019-05-19T18:39:23.605Z,21.56
2019-05-19T18:41:55.240Z,21.33
2019-05-19T18:44:27.033Z,21.13
2019-05-19T18:46:59.440Z,20.88
2019-05-19T18:49:39.133Z,21.41
2019-05-19T18:52:16.439Z,22.50
2019-05-19T18:54:52.702Z,23.40
2019-05-19T18:57:30.106Z,23.44
2019-05-19T19:02:48.338Z,22.41
2019-05-19T19:05:20.110Z,22.03
2019-05-19T19:07:53.507Z,21.67
2019-05-19T19:10:25.170Z,21.33
2019-05-19T19:12:56.937Z,21.05
2019-05-19T19:15:28.683Z,21.47
2019-05-19T19:18:04.403Z,22.47
2019-05-19T19:20:36.319Z,22.64
2019-05-19T19:23:09.285Z,22.17
2019-05-19T19:25:42.253Z,21.69
2019-05-19T19:28:14.400Z,21.30
2019-05-19T19:30:50.243Z,20.95
2019-05-19T19:33:21.918Z,20.64
2019-05-19T19:35:56.769Z,21.12
2019-05-19T19:38:32.317Z,22.12
2019-05-19T19:41:05.330Z,22.33
2019-05-19T19:43:37.152Z,21.76
2019-05-19T19:46:08.825Z,21.30
2019-05-19T19:48:40.588Z,20.91
2019-05-19T19:51:13.455Z,20.55
2019-05-19T19:53:48.769Z,20.98
2019-05-19T19:56:22.829Z,21.98
2019-05-19T19:58:59.147Z,22.02
2019-05-19T20:01:31.078Z,21.47
2019-05-19T20:04:03.322Z,21.02
2019-05-19T20:06:34.913Z,20.64
2019-05-19T20:09:07.964Z,20.33
2019-05-19T20:11:40.951Z,20.01
2019-05-19T20:14:12.630Z,19.68
2019-05-19T20:16:44.368Z,20.17
2019-05-19T20:19:22.251Z,21.14
2019-05-19T20:21:54.146Z,22.02
2019-05-19T20:24:33.844Z,22.03
2019-05-19T20:27:07.149Z,21.39
2019-05-19T20:29:38.799Z,20.95
2019-05-19T20:32:13.329Z,20.51
2019-05-19T20:34:45.082Z,20.15
2019-05-19T20:37:17.994Z,19.78
2019-05-19T20:39:52.541Z,19.92
2019-05-19T20:42:25.887Z,20.92
2019-05-19T20:45:03.106Z,21.78
2019-05-19T20:47:37.047Z,21.79
2019-05-19T20:50:10.886Z,21.23
2019-05-19T20:52:43.733Z,20.74
2019-05-19T20:55:16.369Z,20.33
2019-05-19T20:57:49.662Z,19.93
2019-05-19T21:00:23.062Z,19.57
2019-05-19T21:02:54.612Z,19.26
2019-05-19T21:05:28.523Z,19.58
2019-05-19T21:08:02.445Z,20.51
2019-05-19T21:10:38.489Z,21.34
2019-05-19T21:13:13.912Z,22.06
2019-05-19T21:15:45.474Z,21.93
2019-05-19T21:18:17.187Z,21.29
2019-05-19T21:20:49.171Z,20.70
2019-05-19T21:23:21.332Z,20.17
2019-05-19T21:25:53.078Z,19.74
2019-05-19T21:28:26.224Z,19.29
2019-05-19T21:31:06.064Z,18.84
2019-05-19T21:33:31.214Z,19.21
2019-05-19T21:36:02.953Z,20.16
2019-05-19T21:38:34.672Z,20.92
2019-05-19T21:41:08.334Z,21.56
2019-05-19T21:43:40.059Z,21.41
2019-05-19T21:46:11.815Z,20.72
2019-05-19T21:48:43.529Z,20.12
2019-05-19T21:51:17.849Z,19.60
2019-05-19T21:53:50.859Z,19.09
2019-05-19T21:56:22.584Z,19.37
2019-05-19T21:58:54.318Z,20.20
2019-05-19T22:01:26.796Z,20.96
2019-05-19T22:03:58.421Z,21.50
2019-05-19T22:06:31.824Z,21.30
2019-05-19T22:09:04.385Z,20.61
2019-05-19T22:11:36.098Z,20.01
2019-05-19T22:14:07.917Z,19.49
2019-05-19T22:16:39.668Z,19.02
2019-05-19T22:19:11.399Z,18.53
2019-05-19T22:21:43.250Z,18.82
2019-05-19T22:24:14.973Z,19.65
2019-05-19T22:26:46.704Z,20.41
2019-05-19T22:29:18.439Z,21.06
2019-05-19T22:31:50.279Z,20.89
2019-05-19T22:34:22.025Z,20.17
2019-05-19T22:36:53.939Z,19.53
2019-05-19T22:39:25.764Z,19.03
2019-05-19T22:42:00.096Z,18.52
2019-05-19T22:44:31.719Z,18.82
2019-05-19T22:47:03.575Z,19.65
2019-05-19T22:49:35.278Z,20.33
2019-05-19T22:52:07.021Z,20.96
2019-05-19T22:54:38.843Z,20.77
2019-05-19T22:57:10.586Z,20.01
2019-05-19T22:59:42.307Z,19.37
2019-05-19T23:02:14.052Z,18.84
2019-05-19T23:04:45.885Z,18.32
2019-05-19T23:07:17.666Z,18.59
2019-05-19T23:09:49.382Z,19.46
2019-05-19T23:12:21.131Z,20.22
2019-05-19T23:14:54.323Z,20.82
2019-05-19T23:17:28.085Z,20.60
2019-05-19T23:19:59.803Z,19.85
2019-05-19T23:22:31.562Z,19.22
2019-05-19T23:25:03.757Z,18.64
2019-05-19T23:27:35.710Z,18.15
2019-05-19T23:30:11.183Z,18.40
2019-05-19T23:32:42.913Z,19.29
2019-05-19T23:35:14.700Z,19.96
2019-05-19T23:37:47.635Z,20.50
2019-05-19T23:40:19.363Z,20.30
2019-05-19T23:42:52.955Z,19.53
2019-05-19T23:45:24.678Z,18.91
2019-05-19T23:47:56.530Z,18.32
2019-05-19T23:50:28.257Z,17.87
2019-05-19T23:53:00.005Z,18.18
2019-05-19T23:55:32.605Z,19.06
2019-05-19T23:58:04.448Z,19.75
